Terminal Aerodrome Forecast
Issued by NWS

Home | Current Version | Previous Version | Text Only | Print | Product List | Glossary On
Versions: 1 2 3 4 5 6 7 8 9 10 11 12 13 14 15 16
000
FTUS43 KGRR 041741
TAFMKG
TAF
KMKG 041741Z 0418/0518 14012KT P6SM -SN OVC025
     FM041900 15009KT 2SM -SN BR OVC010
     FM042100 17008KT 3/4SM -SN BR OVC005
     FM050300 23009KT 3SM -SN BR OVC009
     FM050700 26010KT 6SM BR OVC025
     FM051400 23008KT P6SM BKN050=

USA.gov is the U.S. government's official web portal to all federal, state and local government web resources and services.